sensor_id;sensor_type;location;lat;lon;timestamp;temperature;humidity
67161;DHT22;54088;52.238;21.104;2022-12-18T00:01:17;-2.30;90.40
67161;DHT22;54088;52.238;21.104;2022-12-18T00:03:43;-2.30;90.50
67161;DHT22;54088;52.238;21.104;2022-12-18T00:06:09;-2.30;90.30
67161;DHT22;54088;52.238;21.104;2022-12-18T00:08:35;-2.40;90.30
67161;DHT22;54088;52.238;21.104;2022-12-18T00:11:04;-2.40;90.10
67161;DHT22;54088;52.238;21.104;2022-12-18T00:13:30;-2.40;90.20
67161;DHT22;54088;52.238;21.104;2022-12-18T00:15:55;-2.40;90.00
67161;DHT22;54088;52.238;21.104;2022-12-18T00:18:21;-2.50;90.00
67161;DHT22;54088;52.238;21.104;2022-12-18T00:20:46;-2.40;90.10
67161;DHT22;54088;52.238;21.104;2022-12-18T00:23:12;-2.40;90.00
67161;DHT22;54088;52.238;21.104;2022-12-18T00:25:37;-2.40;90.00
67161;DHT22;54088;52.238;21.104;2022-12-18T00:28:03;-2.40;89.90
67161;DHT22;54088;52.238;21.104;2022-12-18T00:30:29;-2.40;90.00
67161;DHT22;54088;52.238;21.104;2022-12-18T00:32:55;-2.40;90.00
67161;DHT22;54088;52.238;21.104;2022-12-18T00:35:20;-2.40;89.60
67161;DHT22;54088;52.238;21.104;2022-12-18T00:37:46;-2.40;89.60
67161;DHT22;54088;52.238;21.104;2022-12-18T00:40:12;-2.50;89.60
67161;DHT22;54088;52.238;21.104;2022-12-18T00:42:37;-2.50;89.80
67161;DHT22;54088;52.238;21.104;2022-12-18T00:45:28;-2.50;90.00
67161;DHT22;54088;52.238;21.104;2022-12-18T00:47:54;-2.40;90.10
67161;DHT22;54088;52.238;21.104;2022-12-18T00:50:20;-2.50;89.80
67161;DHT22;54088;52.238;21.104;2022-12-18T00:52:46;-2.50;89.80
67161;DHT22;54088;52.238;21.104;2022-12-18T00:55:12;-2.50;89.80
67161;DHT22;54088;52.238;21.104;2022-12-18T00:57:38;-2.50;90.10
67161;DHT22;54088;52.238;21.104;2022-12-18T01:00:04;-2.50;90.10
67161;DHT22;54088;52.238;21.104;2022-12-18T01:02:30;-2.50;90.00
67161;DHT22;54088;52.238;21.104;2022-12-18T01:04:56;-2.50;90.00
67161;DHT22;54088;52.238;21.104;2022-12-18T01:07:21;-2.50;90.10
67161;DHT22;54088;52.238;21.104;2022-12-18T01:09:47;-2.50;90.10
67161;DHT22;54088;52.238;21.104;2022-12-18T01:12:12;-2.50;90.10
67161;DHT22;54088;52.238;21.104;2022-12-18T01:14:38;-2.50;90.10
67161;DHT22;54088;52.238;21.104;2022-12-18T01:17:03;-2.50;90.30
67161;DHT22;54088;52.238;21.104;2022-12-18T01:19:29;-2.40;90.30
67161;DHT22;54088;52.238;21.104;2022-12-18T01:21:54;-2.40;90.20
67161;DHT22;54088;52.238;21.104;2022-12-18T01:24:20;-2.40;90.30
67161;DHT22;54088;52.238;21.104;2022-12-18T01:26:45;-2.30;90.40
67161;DHT22;54088;52.238;21.104;2022-12-18T01:29:11;-2.30;90.20
67161;DHT22;54088;52.238;21.104;2022-12-18T01:31:36;-2.30;90.20
67161;DHT22;54088;52.238;21.104;2022-12-18T01:34:03;-2.40;90.20
67161;DHT22;54088;52.238;21.104;2022-12-18T01:36:29;-2.50;90.20
67161;DHT22;54088;52.238;21.104;2022-12-18T01:38:55;-2.50;90.50
67161;DHT22;54088;52.238;21.104;2022-12-18T01:41:26;-2.50;90.50
67161;DHT22;54088;52.238;21.104;2022-12-18T01:46:56;-2.40;90.70
67161;DHT22;54088;52.238;21.104;2022-12-18T01:49:22;-2.30;90.60
67161;DHT22;54088;52.238;21.104;2022-12-18T01:51:47;-2.30;90.50
67161;DHT22;54088;52.238;21.104;2022-12-18T01:54:13;-2.20;90.50
67161;DHT22;54088;52.238;21.104;2022-12-18T01:56:38;-2.30;90.30
67161;DHT22;54088;52.238;21.104;2022-12-18T01:59:04;-2.40;90.50
67161;DHT22;54088;52.238;21.104;2022-12-18T02:01:31;-2.40;90.50
67161;DHT22;54088;52.238;21.104;2022-12-18T02:04:14;-2.50;90.50
67161;DHT22;54088;52.238;21.104;2022-12-18T02:06:42;-2.40;90.60
67161;DHT22;54088;52.238;21.104;2022-12-18T02:16:59;-2.30;90.20
67161;DHT22;54088;52.238;21.104;2022-12-18T02:22:01;-2.30;90.20
67161;DHT22;54088;52.238;21.104;2022-12-18T02:24:38;-2.30;90.10
67161;DHT22;54088;52.238;21.104;2022-12-18T02:27:05;-2.30;90.00
67161;DHT22;54088;52.238;21.104;2022-12-18T02:29:39;-2.40;90.00
67161;DHT22;54088;52.238;21.104;2022-12-18T02:32:08;-2.50;89.80
67161;DHT22;54088;52.238;21.104;2022-12-18T02:34:36;-2.50;89.90
67161;DHT22;54088;52.238;21.104;2022-12-18T02:37:03;-2.50;89.70
67161;DHT22;54088;52.238;21.104;2022-12-18T02:39:30;-2.50;89.80
67161;DHT22;54088;52.238;21.104;2022-12-18T02:41:56;-2.40;89.60
67161;DHT22;54088;52.238;21.104;2022-12-18T02:44:22;-2.50;89.40
67161;DHT22;54088;52.238;21.104;2022-12-18T02:46:52;-2.50;89.40
67161;DHT22;54088;52.238;21.104;2022-12-18T02:56:53;-2.50;88.80
67161;DHT22;54088;52.238;21.104;2022-12-18T02:59:19;-2.60;88.50
67161;DHT22;54088;52.238;21.104;2022-12-18T03:01:54;-2.60;88.70
67161;DHT22;54088;52.238;21.104;2022-12-18T03:06:51;-2.60;88.60
67161;DHT22;54088;52.238;21.104;2022-12-18T03:09:23;-2.60;88.10
67161;DHT22;54088;52.238;21.104;2022-12-18T03:11:54;-2.60;88.20
67161;DHT22;54088;52.238;21.104;2022-12-18T03:14:40;-2.50;88.30
67161;DHT22;54088;52.238;21.104;2022-12-18T03:17:07;-2.50;88.20
67161;DHT22;54088;52.238;21.104;2022-12-18T03:19:34;-2.50;88.00
67161;DHT22;54088;52.238;21.104;2022-12-18T03:22:02;-2.50;87.80
67161;DHT22;54088;52.238;21.104;2022-12-18T03:24:29;-2.60;87.80
67161;DHT22;54088;52.238;21.104;2022-12-18T03:26:57;-2.70;87.50
67161;DHT22;54088;52.238;21.104;2022-12-18T03:29:31;-2.70;88.20
67161;DHT22;54088;52.238;21.104;2022-12-18T03:32:00;-2.80;88.50
67161;DHT22;54088;52.238;21.104;2022-12-18T03:34:31;-2.80;88.40
67161;DHT22;54088;52.238;21.104;2022-12-18T03:36:58;-2.80;88.60
67161;DHT22;54088;52.238;21.104;2022-12-18T03:39:24;-2.70;89.00
67161;DHT22;54088;52.238;21.104;2022-12-18T03:42:10;-2.70;88.40
67161;DHT22;54088;52.238;21.104;2022-12-18T03:44:49;-2.70;88.40
67161;DHT22;54088;52.238;21.104;2022-12-18T03:47:24;-2.70;88.10
67161;DHT22;54088;52.238;21.104;2022-12-18T03:54:45;-2.80;87.80
67161;DHT22;54088;52.238;21.104;2022-12-18T03:57:18;-2.70;88.00
67161;DHT22;54088;52.238;21.104;2022-12-18T03:59:45;-2.70;88.90
67161;DHT22;54088;52.238;21.104;2022-12-18T04:02:12;-2.70;88.30
67161;DHT22;54088;52.238;21.104;2022-12-18T04:04:38;-2.70;88.10
67161;DHT22;54088;52.238;21.104;2022-12-18T04:07:04;-2.60;88.40
67161;DHT22;54088;52.238;21.104;2022-12-18T04:09:30;-2.60;88.00
67161;DHT22;54088;52.238;21.104;2022-12-18T04:11:57;-2.70;88.00
67161;DHT22;54088;52.238;21.104;2022-12-18T04:14:23;-2.70;88.10
67161;DHT22;54088;52.238;21.104;2022-12-18T04:16:48;-2.70;88.30
67161;DHT22;54088;52.238;21.104;2022-12-18T04:19:14;-2.70;88.20
67161;DHT22;54088;52.238;21.104;2022-12-18T04:21:39;-2.60;88.30
67161;DHT22;54088;52.238;21.104;2022-12-18T04:24:05;-2.60;88.30
67161;DHT22;54088;52.238;21.104;2022-12-18T04:26:30;-2.70;88.10
67161;DHT22;54088;52.238;21.104;2022-12-18T04:28:56;-2.70;88.30
67161;DHT22;54088;52.238;21.104;2022-12-18T04:31:21;-2.80;88.30
67161;DHT22;54088;52.238;21.104;2022-12-18T04:33:47;-2.80;88.50
67161;DHT22;54088;52.238;21.104;2022-12-18T04:36:12;-2.80;88.40
67161;DHT22;54088;52.238;21.104;2022-12-18T04:38:38;-2.80;88.70
67161;DHT22;54088;52.238;21.104;2022-12-18T04:41:03;-2.80;88.90
67161;DHT22;54088;52.238;21.104;2022-12-18T04:43:29;-2.80;88.70
67161;DHT22;54088;52.238;21.104;2022-12-18T04:46:01;-2.80;88.50
67161;DHT22;54088;52.238;21.104;2022-12-18T04:48:26;-2.80;88.50
67161;DHT22;54088;52.238;21.104;2022-12-18T04:50:52;-2.70;88.50
67161;DHT22;54088;52.238;21.104;2022-12-18T04:53:17;-2.70;88.60
67161;DHT22;54088;52.238;21.104;2022-12-18T04:55:43;-2.70;88.10
67161;DHT22;54088;52.238;21.104;2022-12-18T04:58:08;-2.80;88.20
67161;DHT22;54088;52.238;21.104;2022-12-18T05:00:34;-2.80;88.40
67161;DHT22;54088;52.238;21.104;2022-12-18T05:03:00;-2.80;88.50
67161;DHT22;54088;52.238;21.104;2022-12-18T05:05:26;-2.80;88.50
67161;DHT22;54088;52.238;21.104;2022-12-18T05:07:51;-2.80;88.50
67161;DHT22;54088;52.238;21.104;2022-12-18T05:10:17;-2.70;88.50
67161;DHT22;54088;52.238;21.104;2022-12-18T05:12:42;-2.80;88.10
67161;DHT22;54088;52.238;21.104;2022-12-18T05:15:27;-2.90;88.30
67161;DHT22;54088;52.238;21.104;2022-12-18T05:17:52;-2.90;88.70
67161;DHT22;54088;52.238;21.104;2022-12-18T05:20:18;-2.80;88.80
67161;DHT22;54088;52.238;21.104;2022-12-18T05:22:43;-2.80;88.80
67161;DHT22;54088;52.238;21.104;2022-12-18T05:25:09;-2.80;88.80
67161;DHT22;54088;52.238;21.104;2022-12-18T05:27:34;-2.80;88.50
67161;DHT22;54088;52.238;21.104;2022-12-18T05:30:00;-2.80;88.30
67161;DHT22;54088;52.238;21.104;2022-12-18T05:32:25;-2.80;88.50
67161;DHT22;54088;52.238;21.104;2022-12-18T05:34:51;-2.70;88.70
67161;DHT22;54088;52.238;21.104;2022-12-18T05:37:16;-2.80;88.00
67161;DHT22;54088;52.238;21.104;2022-12-18T05:39:42;-2.90;88.00
67161;DHT22;54088;52.238;21.104;2022-12-18T05:42:07;-3.00;88.30
67161;DHT22;54088;52.238;21.104;2022-12-18T05:44:33;-3.10;88.40
67161;DHT22;54088;52.238;21.104;2022-12-18T05:46:59;-3.10;88.90
67161;DHT22;54088;52.238;21.104;2022-12-18T05:49:24;-3.10;88.80
67161;DHT22;54088;52.238;21.104;2022-12-18T05:51:50;-3.10;88.90
67161;DHT22;54088;52.238;21.104;2022-12-18T05:54:15;-3.10;89.00
67161;DHT22;54088;52.238;21.104;2022-12-18T05:56:41;-3.10;88.90
67161;DHT22;54088;52.238;21.104;2022-12-18T05:59:06;-3.10;89.00
67161;DHT22;54088;52.238;21.104;2022-12-18T06:01:32;-3.00;88.90
67161;DHT22;54088;52.238;21.104;2022-12-18T06:03:57;-3.10;88.60
67161;DHT22;54088;52.238;21.104;2022-12-18T06:06:24;-3.10;88.80
67161;DHT22;54088;52.238;21.104;2022-12-18T06:08:50;-3.10;89.10
67161;DHT22;54088;52.238;21.104;2022-12-18T06:11:17;-3.10;89.00
67161;DHT22;54088;52.238;21.104;2022-12-18T06:13:43;-3.10;89.00
67161;DHT22;54088;52.238;21.104;2022-12-18T06:16:08;-3.10;89.10
67161;DHT22;54088;52.238;21.104;2022-12-18T06:18:37;-3.10;89.60
67161;DHT22;54088;52.238;21.104;2022-12-18T06:21:03;-3.10;89.60
67161;DHT22;54088;52.238;21.104;2022-12-18T06:23:28;-3.10;89.50
67161;DHT22;54088;52.238;21.104;2022-12-18T06:25:54;-3.20;89.50
67161;DHT22;54088;52.238;21.104;2022-12-18T06:28:20;-3.20;89.70
67161;DHT22;54088;52.238;21.104;2022-12-18T06:30:46;-3.10;89.90
67161;DHT22;54088;52.238;21.104;2022-12-18T06:33:12;-3.10;90.00
67161;DHT22;54088;52.238;21.104;2022-12-18T06:35:37;-3.20;89.50
67161;DHT22;54088;52.238;21.104;2022-12-18T06:38:03;-3.20;89.90
67161;DHT22;54088;52.238;21.104;2022-12-18T06:40:29;-3.20;90.10
67161;DHT22;54088;52.238;21.104;2022-12-18T06:42:54;-3.10;90.10
67161;DHT22;54088;52.238;21.104;2022-12-18T06:45:20;-3.10;90.20
67161;DHT22;54088;52.238;21.104;2022-12-18T06:47:45;-3.10;90.20
67161;DHT22;54088;52.238;21.104;2022-12-18T06:50:11;-3.10;90.20
67161;DHT22;54088;52.238;21.104;2022-12-18T06:52:37;-3.10;90.30
67161;DHT22;54088;52.238;21.104;2022-12-18T06:55:02;-3.10;90.20
67161;DHT22;54088;52.238;21.104;2022-12-18T06:57:28;-3.10;90.30
67161;DHT22;54088;52.238;21.104;2022-12-18T06:59:54;-3.00;90.40
67161;DHT22;54088;52.238;21.104;2022-12-18T07:02:19;-3.00;90.20
67161;DHT22;54088;52.238;21.104;2022-12-18T07:04:45;-2.90;90.40
67161;DHT22;54088;52.238;21.104;2022-12-18T07:07:10;-2.90;90.30
67161;DHT22;54088;52.238;21.104;2022-12-18T07:09:36;-2.90;90.20
67161;DHT22;54088;52.238;21.104;2022-12-18T07:12:01;-2.90;90.30
67161;DHT22;54088;52.238;21.104;2022-12-18T07:14:27;-2.90;90.30
67161;DHT22;54088;52.238;21.104;2022-12-18T07:16:52;-2.90;90.50
67161;DHT22;54088;52.238;21.104;2022-12-18T07:19:18;-2.80;90.40
67161;DHT22;54088;52.238;21.104;2022-12-18T07:21:43;-2.80;90.50
67161;DHT22;54088;52.238;21.104;2022-12-18T07:24:09;-2.80;90.40
67161;DHT22;54088;52.238;21.104;2022-12-18T07:26:34;-2.80;90.40
67161;DHT22;54088;52.238;21.104;2022-12-18T07:29:00;-2.80;90.50
67161;DHT22;54088;52.238;21.104;2022-12-18T07:31:25;-2.80;90.60
67161;DHT22;54088;52.238;21.104;2022-12-18T07:33:51;-2.80;90.60
67161;DHT22;54088;52.238;21.104;2022-12-18T07:36:17;-2.80;90.70
67161;DHT22;54088;52.238;21.104;2022-12-18T07:38:42;-2.70;90.60
67161;DHT22;54088;52.238;21.104;2022-12-18T07:41:09;-2.60;90.70
67161;DHT22;54088;52.238;21.104;2022-12-18T07:43:35;-2.70;90.50
67161;DHT22;54088;52.238;21.104;2022-12-18T07:46:01;-2.60;90.60
67161;DHT22;54088;52.238;21.104;2022-12-18T07:48:27;-2.50;90.60
67161;DHT22;54088;52.238;21.104;2022-12-18T07:50:53;-2.40;90.60
67161;DHT22;54088;52.238;21.104;2022-12-18T07:53:18;-2.40;90.40
67161;DHT22;54088;52.238;21.104;2022-12-18T07:55:44;-2.40;90.40
67161;DHT22;54088;52.238;21.104;2022-12-18T07:58:09;-2.30;90.30
67161;DHT22;54088;52.238;21.104;2022-12-18T08:00:35;-2.30;90.20
67161;DHT22;54088;52.238;21.104;2022-12-18T08:03:01;-2.30;90.10
67161;DHT22;54088;52.238;21.104;2022-12-18T08:05:26;-2.20;90.00
67161;DHT22;54088;52.238;21.104;2022-12-18T08:07:52;-2.20;89.50
67161;DHT22;54088;52.238;21.104;2022-12-18T08:10:18;-2.20;89.50
67161;DHT22;54088;52.238;21.104;2022-12-18T08:12:43;-2.10;89.60
67161;DHT22;54088;52.238;21.104;2022-12-18T08:15:09;-2.10;89.70
67161;DHT22;54088;52.238;21.104;2022-12-18T08:17:34;-2.10;89.50
67161;DHT22;54088;52.238;21.104;2022-12-18T08:20:00;-2.10;89.50
67161;DHT22;54088;52.238;21.104;2022-12-18T08:22:25;-2.20;89.00
67161;DHT22;54088;52.238;21.104;2022-12-18T08:24:51;-2.20;89.70
67161;DHT22;54088;52.238;21.104;2022-12-18T08:27:16;-2.10;89.50
67161;DHT22;54088;52.238;21.104;2022-12-18T08:29:42;-2.10;89.80
67161;DHT22;54088;52.238;21.104;2022-12-18T08:32:07;-2.00;89.90
67161;DHT22;54088;52.238;21.104;2022-12-18T08:34:34;-1.80;89.70
67161;DHT22;54088;52.238;21.104;2022-12-18T08:36:59;-1.70;89.30
67161;DHT22;54088;52.238;21.104;2022-12-18T08:39:25;-1.70;89.10
67161;DHT22;54088;52.238;21.104;2022-12-18T08:41:50;-1.70;89.00
67161;DHT22;54088;52.238;21.104;2022-12-18T08:44:35;-1.70;88.80
67161;DHT22;54088;52.238;21.104;2022-12-18T08:47:04;-1.60;88.90
67161;DHT22;54088;52.238;21.104;2022-12-18T08:49:29;-1.50;88.50
67161;DHT22;54088;52.238;21.104;2022-12-18T08:51:55;-1.40;88.20
67161;DHT22;54088;52.238;21.104;2022-12-18T08:54:22;-1.30;88.10
67161;DHT22;54088;52.238;21.104;2022-12-18T08:56:48;-1.30;88.20
67161;DHT22;54088;52.238;21.104;2022-12-18T08:59:15;-1.30;86.90
67161;DHT22;54088;52.238;21.104;2022-12-18T09:01:40;-1.30;87.20
67161;DHT22;54088;52.238;21.104;2022-12-18T09:04:07;-1.30;87.10
67161;DHT22;54088;52.238;21.104;2022-12-18T09:06:33;-1.30;86.90
67161;DHT22;54088;52.238;21.104;2022-12-18T09:08:58;-1.30;87.20
67161;DHT22;54088;52.238;21.104;2022-12-18T09:11:25;-1.20;87.70
67161;DHT22;54088;52.238;21.104;2022-12-18T09:13:51;-1.10;87.20
67161;DHT22;54088;52.238;21.104;2022-12-18T09:16:18;-1.00;86.50
67161;DHT22;54088;52.238;21.104;2022-12-18T09:18:44;-0.90;86.40
67161;DHT22;54088;52.238;21.104;2022-12-18T09:21:14;-0.80;86.20
67161;DHT22;54088;52.238;21.104;2022-12-18T09:23:40;-0.80;86.20
67161;DHT22;54088;52.238;21.104;2022-12-18T09:26:06;-0.60;85.80
67161;DHT22;54088;52.238;21.104;2022-12-18T09:28:32;-0.60;85.50
67161;DHT22;54088;52.238;21.104;2022-12-18T09:30:57;-0.60;85.60
67161;DHT22;54088;52.238;21.104;2022-12-18T09:33:23;-0.60;85.20
67161;DHT22;54088;52.238;21.104;2022-12-18T09:35:48;-0.60;84.80
67161;DHT22;54088;52.238;21.104;2022-12-18T09:38:15;-0.60;84.40
67161;DHT22;54088;52.238;21.104;2022-12-18T09:40:52;-0.50;84.40
67161;DHT22;54088;52.238;21.104;2022-12-18T09:43:19;-0.60;84.20
67161;DHT22;54088;52.238;21.104;2022-12-18T09:45:46;-0.50;83.70
67161;DHT22;54088;52.238;21.104;2022-12-18T09:48:21;-0.40;83.60
67161;DHT22;54088;52.238;21.104;2022-12-18T09:50:48;-0.40;83.60
67161;DHT22;54088;52.238;21.104;2022-12-18T09:53:16;-0.30;83.50
67161;DHT22;54088;52.238;21.104;2022-12-18T09:55:43;-0.30;83.10
67161;DHT22;54088;52.238;21.104;2022-12-18T10:00:35;-0.20;82.90
67161;DHT22;54088;52.238;21.104;2022-12-18T10:03:03;-0.20;82.50
67161;DHT22;54088;52.238;21.104;2022-12-18T10:05:37;0.00;82.30
67161;DHT22;54088;52.238;21.104;2022-12-18T10:08:17;0.00;81.60
67161;DHT22;54088;52.238;21.104;2022-12-18T10:10:48;0.00;81.70
67161;DHT22;54088;52.238;21.104;2022-12-18T10:20:51;0.30;80.90
67161;DHT22;54088;52.238;21.104;2022-12-18T10:23:33;0.30;80.60
67161;DHT22;54088;52.238;21.104;2022-12-18T10:26:08;0.30;81.00
67161;DHT22;54088;52.238;21.104;2022-12-18T10:28:35;0.30;80.90
67161;DHT22;54088;52.238;21.104;2022-12-18T10:31:01;0.30;81.10
67161;DHT22;54088;52.238;21.104;2022-12-18T10:33:30;0.30;81.00
67161;DHT22;54088;52.238;21.104;2022-12-18T10:35:57;0.30;81.40
67161;DHT22;54088;52.238;21.104;2022-12-18T10:38:24;0.30;81.00
67161;DHT22;54088;52.238;21.104;2022-12-18T10:40:54;0.30;80.70
67161;DHT22;54088;52.238;21.104;2022-12-18T10:43:38;0.20;80.60
67161;DHT22;54088;52.238;21.104;2022-12-18T10:48:54;0.10;80.90
67161;DHT22;54088;52.238;21.104;2022-12-18T10:51:32;0.00;80.70
67161;DHT22;54088;52.238;21.104;2022-12-18T10:54:01;0.00;80.70
67161;DHT22;54088;52.238;21.104;2022-12-18T10:56:29;0.10;80.90
67161;DHT22;54088;52.238;21.104;2022-12-18T10:59:02;0.10;80.90
67161;DHT22;54088;52.238;21.104;2022-12-18T11:01:34;0.20;80.80
67161;DHT22;54088;52.238;21.104;2022-12-18T11:04:13;0.20;80.20
67161;DHT22;54088;52.238;21.104;2022-12-18T11:09:19;0.20;80.30
67161;DHT22;54088;52.238;21.104;2022-12-18T11:11:52;0.20;79.90
67161;DHT22;54088;52.238;21.104;2022-12-18T11:15:04;0.20;80.00
67161;DHT22;54088;52.238;21.104;2022-12-18T11:17:04;0.20;80.20
67161;DHT22;54088;52.238;21.104;2022-12-18T11:19:37;0.20;80.10
67161;DHT22;54088;52.238;21.104;2022-12-18T11:22:21;0.20;79.80
67161;DHT22;54088;52.238;21.104;2022-12-18T11:27:53;0.20;80.20
67161;DHT22;54088;52.238;21.104;2022-12-18T11:32:46;0.20;80.20
67161;DHT22;54088;52.238;21.104;2022-12-18T11:35:25;0.20;80.00
67161;DHT22;54088;52.238;21.104;2022-12-18T11:37:54;0.10;80.10
67161;DHT22;54088;52.238;21.104;2022-12-18T11:40:27;0.10;80.30
67161;DHT22;54088;52.238;21.104;2022-12-18T11:43:10;0.10;80.40
67161;DHT22;54088;52.238;21.104;2022-12-18T11:45:40;0.00;80.30
67161;DHT22;54088;52.238;21.104;2022-12-18T11:50:50;0.10;80.60
67161;DHT22;54088;52.238;21.104;2022-12-18T11:53:16;0.10;80.70
67161;DHT22;54088;52.238;21.104;2022-12-18T12:06:08;0.00;80.60
67161;DHT22;54088;52.238;21.104;2022-12-18T12:11:07;0.10;80.20
67161;DHT22;54088;52.238;21.104;2022-12-18T12:21:40;0.20;80.10
67161;DHT22;54088;52.238;21.104;2022-12-18T12:24:31;0.20;80.10
67161;DHT22;54088;52.238;21.104;2022-12-18T12:27:01;0.20;80.20
67161;DHT22;54088;52.238;21.104;2022-12-18T12:36:53;0.20;79.80
67161;DHT22;54088;52.238;21.104;2022-12-18T12:39:21;0.20;80.10
67161;DHT22;54088;52.238;21.104;2022-12-18T12:41:48;0.10;79.90
67161;DHT22;54088;52.238;21.104;2022-12-18T12:44:33;0.00;80.20
67161;DHT22;54088;52.238;21.104;2022-12-18T12:47:01;0.00;80.50
67161;DHT22;54088;52.238;21.104;2022-12-18T12:49:30;-0.10;80.60
67161;DHT22;54088;52.238;21.104;2022-12-18T12:52:03;-0.10;80.40
67161;DHT22;54088;52.238;21.104;2022-12-18T12:54:29;-0.10;80.40
67161;DHT22;54088;52.238;21.104;2022-12-18T12:56:58;-0.20;80.50
67161;DHT22;54088;52.238;21.104;2022-12-18T13:02:10;-0.20;80.60
67161;DHT22;54088;52.238;21.104;2022-12-18T13:07:15;-0.20;80.70
67161;DHT22;54088;52.238;21.104;2022-12-18T13:12:26;-0.20;81.30
67161;DHT22;54088;52.238;21.104;2022-12-18T13:15:20;-0.20;81.20
67161;DHT22;54088;52.238;21.104;2022-12-18T13:17:46;-0.20;81.10
67161;DHT22;54088;52.238;21.104;2022-12-18T13:20:12;-0.30;81.30
67161;DHT22;54088;52.238;21.104;2022-12-18T13:22:57;-0.30;81.60
67161;DHT22;54088;52.238;21.104;2022-12-18T13:45:47;-0.40;82.30
67161;DHT22;54088;52.238;21.104;2022-12-18T13:48:21;-0.40;82.50
67161;DHT22;54088;52.238;21.104;2022-12-18T13:51:00;-0.40;82.40
67161;DHT22;54088;52.238;21.104;2022-12-18T13:53:28;-0.40;82.40
67161;DHT22;54088;52.238;21.104;2022-12-18T13:55:55;-0.40;82.20
67161;DHT22;54088;52.238;21.104;2022-12-18T13:58:20;-0.40;82.70
67161;DHT22;54088;52.238;21.104;2022-12-18T14:00:46;-0.50;82.30
67161;DHT22;54088;52.238;21.104;2022-12-18T14:03:19;-0.50;82.50
67161;DHT22;54088;52.238;21.104;2022-12-18T14:05:45;-0.50;82.70
67161;DHT22;54088;52.238;21.104;2022-12-18T14:08:14;-0.60;82.60
67161;DHT22;54088;52.238;21.104;2022-12-18T14:10:41;-0.60;82.70
67161;DHT22;54088;52.238;21.104;2022-12-18T14:13:08;-0.60;82.90
67161;DHT22;54088;52.238;21.104;2022-12-18T14:15:35;-0.60;83.00
67161;DHT22;54088;52.238;21.104;2022-12-18T14:18:02;-0.60;83.20
67161;DHT22;54088;52.238;21.104;2022-12-18T14:20:29;-0.70;83.00
67161;DHT22;54088;52.238;21.104;2022-12-18T14:22:56;-0.70;83.30
67161;DHT22;54088;52.238;21.104;2022-12-18T14:25:23;-0.70;83.50
67161;DHT22;54088;52.238;21.104;2022-12-18T14:27:50;-0.70;83.60
67161;DHT22;54088;52.238;21.104;2022-12-18T14:30:26;-0.70;83.50
67161;DHT22;54088;52.238;21.104;2022-12-18T14:35:26;-0.80;83.50
67161;DHT22;54088;52.238;21.104;2022-12-18T14:37:52;-0.80;83.50
67161;DHT22;54088;52.238;21.104;2022-12-18T14:40:17;-0.90;83.80
67161;DHT22;54088;52.238;21.104;2022-12-18T14:42:43;-0.90;83.90
67161;DHT22;54088;52.238;21.104;2022-12-18T14:48:06;-1.00;84.00
67161;DHT22;54088;52.238;21.104;2022-12-18T14:50:32;-1.00;84.20
67161;DHT22;54088;52.238;21.104;2022-12-18T14:52:58;-1.00;84.10
67161;DHT22;54088;52.238;21.104;2022-12-18T14:55:23;-1.00;84.10
67161;DHT22;54088;52.238;21.104;2022-12-18T14:57:50;-1.00;84.30
67161;DHT22;54088;52.238;21.104;2022-12-18T15:00:19;-1.00;84.20
67161;DHT22;54088;52.238;21.104;2022-12-18T15:02:46;-1.10;84.30
67161;DHT22;54088;52.238;21.104;2022-12-18T15:07:40;-1.00;84.50
67161;DHT22;54088;52.238;21.104;2022-12-18T15:10:13;-0.90;84.60
67161;DHT22;54088;52.238;21.104;2022-12-18T15:12:40;-1.00;84.90
67161;DHT22;54088;52.238;21.104;2022-12-18T15:15:52;-1.00;84.60
67161;DHT22;54088;52.238;21.104;2022-12-18T15:18:05;-1.00;84.60
67161;DHT22;54088;52.238;21.104;2022-12-18T15:23:14;-0.90;84.60
67161;DHT22;54088;52.238;21.104;2022-12-18T15:25:40;-0.90;84.50
67161;DHT22;54088;52.238;21.104;2022-12-18T15:28:22;-0.90;84.50
67161;DHT22;54088;52.238;21.104;2022-12-18T15:30:58;-0.90;84.60
67161;DHT22;54088;52.238;21.104;2022-12-18T15:33:25;-0.90;84.70
67161;DHT22;54088;52.238;21.104;2022-12-18T15:36:00;-0.90;84.60
67161;DHT22;54088;52.238;21.104;2022-12-18T15:38:26;-0.90;84.60
67161;DHT22;54088;52.238;21.104;2022-12-18T15:40:52;-0.90;84.40
67161;DHT22;54088;52.238;21.104;2022-12-18T15:43:19;-0.90;84.40
67161;DHT22;54088;52.238;21.104;2022-12-18T15:46:03;-1.00;84.50
67161;DHT22;54088;52.238;21.104;2022-12-18T15:48:29;-1.00;84.70
67161;DHT22;54088;52.238;21.104;2022-12-18T15:50:55;-1.00;84.60
67161;DHT22;54088;52.238;21.104;2022-12-18T15:53:22;-1.00;84.70
67161;DHT22;54088;52.238;21.104;2022-12-18T15:55:48;-1.00;85.10
67161;DHT22;54088;52.238;21.104;2022-12-18T15:58:32;-1.00;85.10
67161;DHT22;54088;52.238;21.104;2022-12-18T16:00:58;-1.00;85.20
67161;DHT22;54088;52.238;21.104;2022-12-18T16:03:24;-1.00;85.00
67161;DHT22;54088;52.238;21.104;2022-12-18T16:05:50;-1.00;85.10
67161;DHT22;54088;52.238;21.104;2022-12-18T16:08:15;-1.00;85.10
67161;DHT22;54088;52.238;21.104;2022-12-18T16:10:41;-1.00;85.30
67161;DHT22;54088;52.238;21.104;2022-12-18T16:13:09;-1.10;85.20
67161;DHT22;54088;52.238;21.104;2022-12-18T16:15:35;-1.00;85.20
67161;DHT22;54088;52.238;21.104;2022-12-18T16:18:00;-1.00;85.00
67161;DHT22;54088;52.238;21.104;2022-12-18T16:20:26;-1.10;84.90
67161;DHT22;54088;52.238;21.104;2022-12-18T16:22:51;-1.10;84.80
67161;DHT22;54088;52.238;21.104;2022-12-18T16:25:25;-1.20;85.00
67161;DHT22;54088;52.238;21.104;2022-12-18T16:27:51;-1.20;85.10
67161;DHT22;54088;52.238;21.104;2022-12-18T16:30:21;-1.20;85.00
67161;DHT22;54088;52.238;21.104;2022-12-18T16:32:46;-1.20;85.10
67161;DHT22;54088;52.238;21.104;2022-12-18T16:35:12;-1.30;85.30
67161;DHT22;54088;52.238;21.104;2022-12-18T16:37:38;-1.30;85.90
67161;DHT22;54088;52.238;21.104;2022-12-18T16:40:05;-1.20;85.40
67161;DHT22;54088;52.238;21.104;2022-12-18T16:42:31;-1.20;85.20
67161;DHT22;54088;52.238;21.104;2022-12-18T16:44:56;-1.20;85.30
67161;DHT22;54088;52.238;21.104;2022-12-18T16:47:22;-1.20;85.40
67161;DHT22;54088;52.238;21.104;2022-12-18T16:49:47;-1.20;85.40
67161;DHT22;54088;52.238;21.104;2022-12-18T16:52:18;-1.20;85.20
67161;DHT22;54088;52.238;21.104;2022-12-18T16:54:43;-1.30;85.20
67161;DHT22;54088;52.238;21.104;2022-12-18T16:57:10;-1.30;85.30
67161;DHT22;54088;52.238;21.104;2022-12-18T16:59:37;-1.40;85.30
67161;DHT22;54088;52.238;21.104;2022-12-18T17:02:02;-1.50;85.60
67161;DHT22;54088;52.238;21.104;2022-12-18T17:04:28;-1.50;86.00
67161;DHT22;54088;52.238;21.104;2022-12-18T17:06:53;-1.50;86.10
67161;DHT22;54088;52.238;21.104;2022-12-18T17:09:21;-1.50;86.10
67161;DHT22;54088;52.238;21.104;2022-12-18T17:11:50;-1.50;86.10
67161;DHT22;54088;52.238;21.104;2022-12-18T17:14:17;-1.50;85.70
67161;DHT22;54088;52.238;21.104;2022-12-18T17:16:43;-1.60;86.20
67161;DHT22;54088;52.238;21.104;2022-12-18T17:19:08;-1.60;86.10
67161;DHT22;54088;52.238;21.104;2022-12-18T17:21:34;-1.70;86.40